createdAt,value
2019-02-18T00:00:50.428Z,33.97
2019-02-18T00:03:18.960Z,33.20
2019-02-18T00:05:47.163Z,41.03
2019-02-18T00:08:15.298Z,29.90
2019-02-18T00:10:43.381Z,29.40
2019-02-18T00:13:11.499Z,33.90
2019-02-18T00:15:39.649Z,34.47
2019-02-18T00:18:07.798Z,34.07
2019-02-18T00:20:36.133Z,36.77
2019-02-18T00:23:04.635Z,31.97
2019-02-18T00:25:32.702Z,34.57
2019-02-18T00:28:00.820Z,28.10
2019-02-18T00:30:28.927Z,33.30
2019-02-18T00:32:57.171Z,33.03
2019-02-18T00:35:25.336Z,31.77
2019-02-18T00:37:53.412Z,34.43
2019-02-18T00:40:22.097Z,34.23
2019-02-18T00:42:50.539Z,33.37
2019-02-18T00:45:18.721Z,34.53
2019-02-18T00:47:48.102Z,29.37
2019-02-18T00:50:16.434Z,31.37
2019-02-18T00:52:44.891Z,33.10
2019-02-18T00:55:12.937Z,32.47
2019-02-18T00:57:41.013Z,28.27
2019-02-18T01:00:11.070Z,31.93
2019-02-18T01:02:39.532Z,28.40
2019-02-18T01:05:08.209Z,34.67
2019-02-18T01:07:36.553Z,33.57
2019-02-18T01:10:05.886Z,29.00
2019-02-18T01:12:33.977Z,27.87
2019-02-18T01:15:04.687Z,33.00
2019-02-18T01:17:33.030Z,37.67
2019-02-18T01:20:01.158Z,27.70
2019-02-18T01:22:29.454Z,33.83
2019-02-18T01:24:57.546Z,30.97
2019-02-18T01:27:26.015Z,26.60
2019-02-18T01:29:54.170Z,27.77
2019-02-18T01:32:22.362Z,31.43
2019-02-18T01:34:50.488Z,29.73
2019-02-18T01:37:18.544Z,33.03
2019-02-18T01:39:46.649Z,28.27
2019-02-18T01:42:16.074Z,28.03
2019-02-18T01:44:44.211Z,28.17
2019-02-18T01:47:12.405Z,31.13
2019-02-18T01:49:41.123Z,30.80
2019-02-18T01:52:09.228Z,27.47
2019-02-18T01:54:38.511Z,35.60
2019-02-18T01:57:06.615Z,35.83
2019-02-18T01:59:34.670Z,31.30
2019-02-18T02:02:02.779Z,29.40
2019-02-18T02:04:30.983Z,30.57
2019-02-18T02:06:59.314Z,30.23
2019-02-18T02:09:27.952Z,31.57
2019-02-18T02:11:56.175Z,32.53
2019-02-18T02:14:24.243Z,28.90
2019-02-18T02:16:52.593Z,28.20
2019-02-18T02:19:20.922Z,27.83
2019-02-18T02:21:49.001Z,26.97
2019-02-18T02:24:17.459Z,27.73
2019-02-18T02:26:45.738Z,31.20
2019-02-18T02:29:13.843Z,29.27
2019-02-18T02:31:42.352Z,29.43
2019-02-18T02:34:11.400Z,28.07
2019-02-18T02:36:39.560Z,29.90
2019-02-18T02:39:07.994Z,33.23
2019-02-18T02:41:36.175Z,31.30
2019-02-18T02:44:04.314Z,28.20
2019-02-18T02:46:32.436Z,28.73
2019-02-18T02:49:01.661Z,31.27
2019-02-18T02:51:30.100Z,26.90
2019-02-18T02:53:58.522Z,28.50
2019-02-18T02:56:26.935Z,31.70
2019-02-18T02:58:55.102Z,27.30
2019-02-18T03:01:23.199Z,27.63
2019-02-18T03:03:51.494Z,29.00
2019-02-18T03:06:19.908Z,31.53
2019-02-18T03:08:48.103Z,28.80
2019-02-18T03:11:16.197Z,29.30
2019-02-18T03:13:44.273Z,32.70
2019-02-18T03:16:12.442Z,26.87
2019-02-18T03:18:40.806Z,30.97
2019-02-18T03:21:09.032Z,27.53
2019-02-18T03:23:37.144Z,30.73
2019-02-18T03:26:05.574Z,25.83
2019-02-18T03:29:29.848Z,28.13
2019-02-18T03:31:58.226Z,26.40
2019-02-18T03:34:40.762Z,28.67
2019-02-18T03:37:08.965Z,29.80
2019-02-18T03:39:37.154Z,30.33
2019-02-18T03:42:05.243Z,27.23
2019-02-18T03:44:33.447Z,30.20
2019-02-18T03:47:01.832Z,26.97
2019-02-18T03:49:29.899Z,31.10
2019-02-18T03:51:58.297Z,28.93
2019-02-18T03:54:26.455Z,28.10
2019-02-18T03:56:54.633Z,28.40
2019-02-18T03:59:22.822Z,27.90
2019-02-18T04:01:51.034Z,28.07
2019-02-18T04:04:19.153Z,31.83
2019-02-18T04:06:47.396Z,28.13
2019-02-18T04:09:15.498Z,28.97
2019-02-18T04:11:43.629Z,28.77
2019-02-18T04:14:11.808Z,29.43
2019-02-18T04:16:40.035Z,31.10
2019-02-18T04:19:08.225Z,28.00
2019-02-18T04:21:36.366Z,34.63
2019-02-18T04:24:04.476Z,33.10
2019-02-18T04:26:32.543Z,28.37
2019-02-18T04:29:00.769Z,31.03
2019-02-18T04:31:29.102Z,28.70
2019-02-18T04:33:57.221Z,27.83
2019-02-18T04:36:25.428Z,29.63
2019-02-18T04:38:54.387Z,25.17
2019-02-18T04:41:22.786Z,31.00
2019-02-18T04:43:51.178Z,28.57
2019-02-18T04:46:19.357Z,27.50
2019-02-18T04:48:47.472Z,26.37
2019-02-18T04:51:15.994Z,27.80
2019-02-18T04:53:44.077Z,25.37
2019-02-18T04:56:12.323Z,25.70
2019-02-18T04:58:40.485Z,28.87
2019-02-18T05:01:08.838Z,28.80
2019-02-18T05:03:36.931Z,26.23
2019-02-18T05:06:05.027Z,27.57
2019-02-18T05:08:33.525Z,26.37
2019-02-18T05:11:02.218Z,30.27
2019-02-18T05:13:30.292Z,23.00
2019-02-18T05:15:58.524Z,28.60
2019-02-18T05:18:26.701Z,29.30
2019-02-18T05:20:55.295Z,28.53
2019-02-18T05:23:23.484Z,31.43
2019-02-18T05:25:51.625Z,28.10
2019-02-18T05:28:19.774Z,25.97
2019-02-18T05:30:47.990Z,26.93
2019-02-18T05:33:16.223Z,28.80
2019-02-18T05:35:44.341Z,28.03
2019-02-18T05:38:12.675Z,26.10
2019-02-18T05:40:40.750Z,28.50
2019-02-18T05:43:09.158Z,25.90
2019-02-18T05:45:37.391Z,31.57
2019-02-18T05:48:05.470Z,30.70
2019-02-18T05:50:33.581Z,27.47
2019-02-18T05:53:02.541Z,29.23
2019-02-18T05:55:31.156Z,30.53
2019-02-18T05:57:59.810Z,27.63
2019-02-18T06:00:29.479Z,26.47
2019-02-18T06:02:58.153Z,28.40
2019-02-18T06:05:26.563Z,27.17
2019-02-18T06:07:54.677Z,25.27
2019-02-18T06:10:22.828Z,29.47
2019-02-18T06:12:51.334Z,25.80
2019-02-18T06:15:19.672Z,27.97
2019-02-18T06:17:47.788Z,25.63
2019-02-18T06:20:16.006Z,27.40
2019-02-18T06:22:44.161Z,27.17
2019-02-18T06:25:12.538Z,29.53
2019-02-18T06:27:40.765Z,24.20
2019-02-18T06:30:09.095Z,30.30
2019-02-18T06:32:37.373Z,26.50
2019-02-18T06:35:05.953Z,26.30
2019-02-18T06:37:34.410Z,26.53
2019-02-18T06:40:02.795Z,25.90
2019-02-18T06:42:30.908Z,25.30
2019-02-18T06:45:20.388Z,25.73
2019-02-18T06:47:48.562Z,28.33
2019-02-18T06:50:17.094Z,28.50
2019-02-18T06:52:45.189Z,24.73
2019-02-18T06:55:13.373Z,28.77
2019-02-18T06:58:04.678Z,23.57
2019-02-18T07:00:44.824Z,24.43
2019-02-18T07:03:21.362Z,26.83
2019-02-18T07:05:57.063Z,24.77
2019-02-18T07:08:43.429Z,29.63
2019-02-18T07:11:16.155Z,29.17
2019-02-18T07:13:44.356Z,27.83
2019-02-18T07:16:12.407Z,23.03
2019-02-18T07:18:40.712Z,24.00
2019-02-18T07:21:08.795Z,25.30
2019-02-18T07:23:37.043Z,25.77
2019-02-18T07:26:05.282Z,24.40
2019-02-18T07:28:33.466Z,25.30
2019-02-18T07:31:01.922Z,27.60
2019-02-18T07:33:30.071Z,27.77
2019-02-18T07:35:58.207Z,27.60
2019-02-18T07:38:26.254Z,28.67
2019-02-18T07:40:54.502Z,25.33
2019-02-18T07:43:23.233Z,22.23
2019-02-18T07:45:51.687Z,24.17
2019-02-18T07:48:19.968Z,28.77
2019-02-18T07:50:48.156Z,26.23
2019-02-18T07:53:16.551Z,24.70
2019-02-18T07:55:44.788Z,22.73
2019-02-18T07:58:13.159Z,33.50
2019-02-18T08:00:41.279Z,25.33
2019-02-18T08:03:09.444Z,25.40
2019-02-18T08:05:37.837Z,25.67
2019-02-18T08:08:05.952Z,28.73
2019-02-18T08:10:34.149Z,26.27
2019-02-18T08:13:02.306Z,23.80
2019-02-18T08:15:30.400Z,24.23
2019-02-18T08:17:58.476Z,23.53
2019-02-18T08:20:26.942Z,24.63
2019-02-18T08:22:55.054Z,26.50
2019-02-18T08:25:23.177Z,25.50
2019-02-18T08:27:51.481Z,30.37
2019-02-18T08:30:19.605Z,24.00
2019-02-18T08:32:47.690Z,20.37
2019-02-18T08:35:16.393Z,23.03
2019-02-18T08:37:44.596Z,23.60
2019-02-18T08:40:21.706Z,20.70
2019-02-18T08:42:42.659Z,21.70
2019-02-18T08:45:15.329Z,21.63
2019-02-18T08:47:43.426Z,22.10
2019-02-18T08:50:11.788Z,20.40
2019-02-18T08:52:39.982Z,23.53
2019-02-18T08:55:10.712Z,21.40
2019-02-18T08:57:38.797Z,23.17
2019-02-18T09:00:13.650Z,22.07
2019-02-18T09:02:42.099Z,20.80
2019-02-18T09:05:10.432Z,22.50
2019-02-18T09:07:40.287Z,23.43
2019-02-18T09:10:10.042Z,22.93
2019-02-18T09:12:38.128Z,21.57
2019-02-18T09:15:07.436Z,19.63
2019-02-18T09:17:36.028Z,20.73
2019-02-18T09:20:06.395Z,19.23
2019-02-18T09:22:53.881Z,21.20
2019-02-18T09:25:44.048Z,20.27
2019-02-18T09:28:13.747Z,19.80
2019-02-18T09:30:44.568Z,21.17
2019-02-18T09:33:13.032Z,19.80
2019-02-18T09:35:41.195Z,18.83
2019-02-18T09:38:09.273Z,20.67
2019-02-18T09:40:45.117Z,23.47
2019-02-18T09:43:07.374Z,20.03
2019-02-18T09:45:35.484Z,22.83
2019-02-18T09:48:05.449Z,20.10
2019-02-18T09:50:33.716Z,22.23
2019-02-18T09:53:02.986Z,19.53
2019-02-18T09:55:31.580Z,19.10
2019-02-18T09:57:59.999Z,16.97
2019-02-18T10:00:28.281Z,17.73
2019-02-18T10:03:04.812Z,18.38
2019-02-18T10:05:32.851Z,16.67
2019-02-18T10:08:01.223Z,17.87
2019-02-18T10:10:29.622Z,15.73
2019-02-18T10:12:59.606Z,21.10
2019-02-18T10:15:27.810Z,17.27
2019-02-18T10:17:56.300Z,18.70
2019-02-18T10:20:24.611Z,20.90
2019-02-18T10:22:52.821Z,18.27
2019-02-18T10:25:20.928Z,16.93
2019-02-18T10:27:50.835Z,19.87
2019-02-18T10:30:20.742Z,18.17
2019-02-18T10:32:49.006Z,23.17
2019-02-18T10:35:17.332Z,19.27
2019-02-18T10:37:54.667Z,16.47
2019-02-18T10:40:15.494Z,14.63
2019-02-18T10:42:43.793Z,19.20
2019-02-18T10:45:12.828Z,20.53
2019-02-18T10:47:40.990Z,19.37
2019-02-18T10:50:10.023Z,19.67
2019-02-18T10:52:38.329Z,23.43
2019-02-18T10:55:07.522Z,18.30
2019-02-18T10:57:35.970Z,19.40
2019-02-18T11:00:08.836Z,18.50
2019-02-18T11:02:37.198Z,16.60
2019-02-18T11:05:06.604Z,17.93
2019-02-18T11:07:34.841Z,16.93
2019-02-18T11:10:05.121Z,20.63
2019-02-18T11:12:33.546Z,18.33
2019-02-18T11:15:01.652Z,19.93
2019-02-18T11:17:38.684Z,19.87
2019-02-18T11:20:09.799Z,19.33
2019-02-18T11:22:38.140Z,17.50
2019-02-18T11:25:07.688Z,19.17
2019-02-18T11:27:37.566Z,21.20
2019-02-18T11:30:09.429Z,18.00
2019-02-18T11:32:37.805Z,17.90
2019-02-18T11:35:06.290Z,22.93
2019-02-18T11:37:34.356Z,17.37
2019-02-18T11:40:02.641Z,21.07
2019-02-18T11:42:30.758Z,20.43
2019-02-18T11:44:59.506Z,16.90
2019-02-18T11:47:28.223Z,16.63
2019-02-18T11:49:56.502Z,20.87
2019-02-18T11:52:24.592Z,19.23
2019-02-18T11:54:52.668Z,17.83
2019-02-18T11:57:20.806Z,16.43
2019-02-18T11:59:49.032Z,16.37
2019-02-18T12:02:17.416Z,18.83
2019-02-18T12:04:45.497Z,17.03
2019-02-18T12:07:13.895Z,15.80
2019-02-18T12:09:42.127Z,17.57
2019-02-18T12:12:10.299Z,16.27
2019-02-18T12:14:39.375Z,18.07
2019-02-18T12:17:07.443Z,15.93
2019-02-18T12:19:36.188Z,17.37
2019-02-18T12:22:04.970Z,17.07
2019-02-18T12:24:33.150Z,17.47
2019-02-18T12:27:01.235Z,16.20
2019-02-18T12:29:29.286Z,15.10
2019-02-18T12:31:58.001Z,15.77
2019-02-18T12:34:26.166Z,17.00
2019-02-18T12:36:54.746Z,16.70
2019-02-18T12:39:22.918Z,16.00
2019-02-18T12:41:51.314Z,16.97
2019-02-18T12:44:19.472Z,16.67
2019-02-18T12:46:47.863Z,18.90
2019-02-18T12:49:16.342Z,19.40
2019-02-18T12:51:45.298Z,14.23
2019-02-18T12:54:13.396Z,17.30
2019-02-18T12:56:41.828Z,16.90
2019-02-18T12:59:10.170Z,17.67
2019-02-18T13:01:39.104Z,17.43
2019-02-18T13:04:07.339Z,15.83
2019-02-18T13:06:35.569Z,18.73
2019-02-18T13:09:05.387Z,15.30
2019-02-18T13:11:33.981Z,14.63
2019-02-18T13:14:02.283Z,17.47
2019-02-18T13:16:31.767Z,16.80
2019-02-18T13:18:59.874Z,14.87
2019-02-18T13:21:28.547Z,17.40
2019-02-18T13:23:56.730Z,15.33
2019-02-18T13:26:25.094Z,12.83
2019-02-18T13:28:53.599Z,14.60
2019-02-18T13:31:22.159Z,15.43
2019-02-18T13:33:50.242Z,15.70
2019-02-18T13:36:19.953Z,17.40
2019-02-18T13:38:48.763Z,14.67
2019-02-18T13:41:17.973Z,16.13
2019-02-18T13:43:46.108Z,15.00
2019-02-18T13:46:14.356Z,14.83
2019-02-18T13:48:42.623Z,15.00
2019-02-18T13:51:11.174Z,13.87
2019-02-18T13:53:39.355Z,16.03
2019-02-18T13:56:07.931Z,13.33
2019-02-18T13:58:36.081Z,16.63
2019-02-18T14:01:05.605Z,14.50
2019-02-18T14:03:33.845Z,12.07
2019-02-18T14:06:02.112Z,14.03
2019-02-18T14:08:30.451Z,13.30
2019-02-18T14:10:58.528Z,16.13
2019-02-18T14:13:27.191Z,18.23
2019-02-18T14:15:55.837Z,13.83
2019-02-18T14:18:23.916Z,15.80
2019-02-18T14:20:52.395Z,18.47
2019-02-18T14:23:20.734Z,14.10
2019-02-18T14:25:48.990Z,13.60
2019-02-18T14:28:18.947Z,14.83
2019-02-18T14:30:47.179Z,14.00
2019-02-18T14:33:17.332Z,21.20
2019-02-18T14:35:46.031Z,13.13
2019-02-18T14:38:14.086Z,15.30
2019-02-18T14:40:42.319Z,12.83
2019-02-18T14:43:10.799Z,14.40
2019-02-18T14:45:39.004Z,17.40
2019-02-18T14:48:08.852Z,15.53
2019-02-18T14:50:36.952Z,12.53
2019-02-18T14:53:05.217Z,14.57
2019-02-18T14:55:33.501Z,15.83
2019-02-18T14:58:03.129Z,13.63
2019-02-18T15:00:31.328Z,15.20
2019-02-18T15:03:01.271Z,13.80
2019-02-18T15:05:29.466Z,15.00
2019-02-18T15:07:57.501Z,17.00
2019-02-18T15:10:25.950Z,18.57
2019-02-18T15:12:54.053Z,13.47
2019-02-18T15:15:22.122Z,14.07
2019-02-18T15:17:50.238Z,16.83
2019-02-18T15:20:18.811Z,19.77
2019-02-18T15:22:47.414Z,17.50
2019-02-18T15:25:15.977Z,15.20
2019-02-18T15:27:45.891Z,14.67
2019-02-18T15:30:15.151Z,14.93
2019-02-18T15:32:43.356Z,15.20
2019-02-18T15:35:11.534Z,16.27
2019-02-18T15:37:39.635Z,17.17
2019-02-18T15:40:08.552Z,17.50
2019-02-18T15:42:42.181Z,17.90
2019-02-18T15:45:07.361Z,18.20
2019-02-18T15:47:35.565Z,16.77
2019-02-18T15:50:04.179Z,17.90
2019-02-18T15:52:32.250Z,15.83
2019-02-18T15:55:00.961Z,16.93
2019-02-18T15:57:29.305Z,20.27
2019-02-18T15:59:57.745Z,21.30
2019-02-18T16:02:25.843Z,15.50
2019-02-18T16:04:54.179Z,15.97
2019-02-18T16:07:22.681Z,18.67
2019-02-18T16:09:50.764Z,16.80
2019-02-18T16:12:18.846Z,18.37
2019-02-18T16:14:47.102Z,16.93
2019-02-18T16:17:15.180Z,16.07
2019-02-18T16:19:43.342Z,17.70
2019-02-18T16:22:11.508Z,17.67
2019-02-18T16:24:40.015Z,16.57
2019-02-18T16:27:08.596Z,19.43
2019-02-18T16:29:36.702Z,17.97
2019-02-18T16:32:05.730Z,17.10
2019-02-18T16:34:34.206Z,18.80
2019-02-18T16:37:02.726Z,20.60
2019-02-18T16:39:30.826Z,19.77
2019-02-18T16:41:59.268Z,16.87
2019-02-18T16:44:27.444Z,17.40
2019-02-18T16:46:55.890Z,17.90
2019-02-18T16:49:23.955Z,21.87
2019-02-18T16:51:52.164Z,22.27
2019-02-18T16:54:20.854Z,16.23
2019-02-18T16:56:49.001Z,16.87
2019-02-18T16:59:17.066Z,19.13
2019-02-18T17:01:45.433Z,18.43
2019-02-18T17:04:13.533Z,18.60
2019-02-18T17:06:42.029Z,18.00
2019-02-18T17:09:13.544Z,20.23
2019-02-18T17:11:41.947Z,20.87
2019-02-18T17:14:10.182Z,17.63
2019-02-18T17:16:38.325Z,17.93
2019-02-18T17:19:06.382Z,19.60
2019-02-18T17:21:34.643Z,23.10
2019-02-18T17:24:02.720Z,21.67
2019-02-18T17:26:30.832Z,21.70
2019-02-18T17:28:58.937Z,23.30
2019-02-18T17:31:27.067Z,24.10
2019-02-18T17:33:55.317Z,20.33
2019-02-18T17:36:23.467Z,19.40
2019-02-18T17:38:51.562Z,22.10
2019-02-18T17:41:19.767Z,24.47
2019-02-18T17:43:48.577Z,22.73
2019-02-18T17:46:16.784Z,23.47
2019-02-18T17:48:44.884Z,22.03
2019-02-18T17:51:13.430Z,21.57
2019-02-18T17:53:41.509Z,20.57
2019-02-18T17:56:09.607Z,22.97
2019-02-18T17:58:37.767Z,21.80
2019-02-18T18:01:06.364Z,24.60
2019-02-18T18:03:34.517Z,23.80
2019-02-18T18:06:02.602Z,22.10
2019-02-18T18:08:30.728Z,23.57
2019-02-18T18:10:59.651Z,25.57
2019-02-18T18:13:27.768Z,25.97
2019-02-18T18:15:55.934Z,25.80
2019-02-18T18:18:24.142Z,25.80
2019-02-18T18:20:52.221Z,26.10
2019-02-18T18:23:20.359Z,30.13
2019-02-18T18:25:48.488Z,29.80
2019-02-18T18:28:16.970Z,26.63
2019-02-18T18:30:45.053Z,24.50
2019-02-18T18:33:13.212Z,23.10
2019-02-18T18:35:41.368Z,25.53
2019-02-18T18:38:09.492Z,25.70
2019-02-18T18:40:37.601Z,23.63
2019-02-18T18:43:05.767Z,22.70
2019-02-18T18:45:33.860Z,23.50
2019-02-18T18:48:02.057Z,26.43
2019-02-18T18:50:30.215Z,22.47
2019-02-18T18:52:58.438Z,21.43
2019-02-18T18:55:26.615Z,26.33
2019-02-18T18:57:55.254Z,25.60
2019-02-18T19:00:23.974Z,24.43
2019-02-18T19:02:52.243Z,25.70
2019-02-18T19:05:20.714Z,27.27
2019-02-18T19:07:48.886Z,25.07
2019-02-18T19:10:17.103Z,26.53
2019-02-18T19:12:45.325Z,24.00
2019-02-18T19:15:13.554Z,21.30
2019-02-18T19:17:41.957Z,25.97
2019-02-18T19:20:11.686Z,24.07
2019-02-18T19:22:39.891Z,24.70
2019-02-18T19:25:08.228Z,25.13
2019-02-18T19:27:36.337Z,24.20
2019-02-18T19:30:06.312Z,26.10
2019-02-18T19:32:34.407Z,24.80
2019-02-18T19:35:02.729Z,28.33
2019-02-18T19:37:30.864Z,26.50
2019-02-18T19:39:59.387Z,26.47
2019-02-18T19:42:27.460Z,27.07
2019-02-18T19:44:55.601Z,25.97
2019-02-18T19:47:23.698Z,29.50
2019-02-18T19:49:51.865Z,25.70
2019-02-18T19:52:20.070Z,25.83
2019-02-18T19:54:48.603Z,25.20
2019-02-18T19:57:16.786Z,26.77
2019-02-18T19:59:46.104Z,23.87
2019-02-18T20:02:14.276Z,32.83
2019-02-18T20:04:42.388Z,44.07
2019-02-18T20:07:10.909Z,39.23
2019-02-18T20:09:39.180Z,40.73
2019-02-18T20:12:07.327Z,37.77
2019-02-18T20:14:35.460Z,35.67
2019-02-18T20:17:03.837Z,33.93
2019-02-18T20:19:31.894Z,33.20
2019-02-18T20:22:00.528Z,33.60
2019-02-18T20:24:28.616Z,32.67
2019-02-18T20:26:56.966Z,36.07
2019-02-18T20:29:25.053Z,34.57
2019-02-18T20:31:53.215Z,27.93
2019-02-18T20:34:21.669Z,33.97
2019-02-18T20:36:49.820Z,33.07
2019-02-18T20:39:18.792Z,27.83
2019-02-18T20:41:47.959Z,27.83
2019-02-18T20:44:16.125Z,29.67
2019-02-18T20:46:44.254Z,26.33
2019-02-18T20:49:12.339Z,26.53
2019-02-18T20:51:40.500Z,27.30
2019-02-18T20:54:09.045Z,31.30
2019-02-18T20:56:37.158Z,30.97
2019-02-18T20:59:05.522Z,30.20
2019-02-18T21:01:33.640Z,26.13
2019-02-18T21:04:01.914Z,28.33
2019-02-18T21:06:30.023Z,28.80
2019-02-18T21:08:58.549Z,27.07
2019-02-18T21:11:26.609Z,30.67
2019-02-18T21:13:55.983Z,29.63
2019-02-18T21:16:25.658Z,29.27
2019-02-18T21:18:53.836Z,32.07
2019-02-18T21:21:21.993Z,27.70
2019-02-18T21:23:50.134Z,28.20
2019-02-18T21:26:18.189Z,28.93
2019-02-18T21:28:46.437Z,29.82
2019-02-18T21:31:14.507Z,31.67
2019-02-18T21:33:42.710Z,28.40
2019-02-18T21:36:10.815Z,28.43
2019-02-18T21:38:38.921Z,32.07
2019-02-18T21:41:07.361Z,24.87
2019-02-18T21:43:35.479Z,27.37
2019-02-18T21:46:03.582Z,27.73
2019-02-18T21:48:32.876Z,28.60
2019-02-18T21:51:00.931Z,37.57
2019-02-18T21:53:29.113Z,30.23
2019-02-18T21:55:57.523Z,32.47
2019-02-18T21:58:25.853Z,30.73
2019-02-18T22:00:53.871Z,29.03
2019-02-18T22:03:22.007Z,29.20
2019-02-18T22:05:50.247Z,32.00
2019-02-18T22:08:18.530Z,31.77
2019-02-18T22:10:46.608Z,33.17
2019-02-18T22:13:14.777Z,27.70
2019-02-18T22:15:42.942Z,31.47
2019-02-18T22:18:11.570Z,28.60
2019-02-18T22:20:39.637Z,28.57
2019-02-18T22:23:07.699Z,31.00
2019-02-18T22:25:35.836Z,26.80
2019-02-18T22:28:03.933Z,29.67
2019-02-18T22:30:32.678Z,27.67
2019-02-18T22:33:00.781Z,28.53
2019-02-18T22:35:29.961Z,26.77
2019-02-18T22:37:58.064Z,30.30
2019-02-18T22:40:26.121Z,27.77
2019-02-18T22:42:54.311Z,27.13
2019-02-18T22:45:24.161Z,27.43
2019-02-18T22:47:53.083Z,31.20
2019-02-18T22:50:21.123Z,28.33
2019-02-18T22:52:49.269Z,27.37
2019-02-18T22:55:17.482Z,26.60
2019-02-18T22:57:45.917Z,27.63
2019-02-18T23:01:02.292Z,28.27
2019-02-18T23:03:30.541Z,29.20
2019-02-18T23:05:58.870Z,29.53
2019-02-18T23:08:26.965Z,32.80
2019-02-18T23:10:55.320Z,25.53
2019-02-18T23:13:23.453Z,27.60
2019-02-18T23:15:51.525Z,25.57
2019-02-18T23:18:20.620Z,28.37
2019-02-18T23:20:48.683Z,27.60
2019-02-18T23:23:16.764Z,25.90
2019-02-18T23:25:44.859Z,27.93
2019-02-18T23:28:12.939Z,26.63
2019-02-18T23:30:41.101Z,25.77
2019-02-18T23:33:09.164Z,27.87
2019-02-18T23:35:38.913Z,29.87
2019-02-18T23:38:07.169Z,28.03
2019-02-18T23:40:35.456Z,25.67
2019-02-18T23:43:03.570Z,26.37
2019-02-18T23:45:31.746Z,30.60
2019-02-18T23:48:00.289Z,28.30
2019-02-18T23:50:28.380Z,23.53
2019-02-18T23:52:57.328Z,26.67
2019-02-18T23:55:26.193Z,25.27
2019-02-18T23:57:54.259Z,28.30
